Airport View

Enter AWOS ICAO identifier for current METAR.

ex. KFNL

KBML 202237Z AUTO 33004KT 10SM OVC016 12/09 A3028 RMK AO2 RAE16 P0000 T01170094

20 Oct 2020 22:48

Frequency: 135.175

Phone: 603-449-3328

Other Area AWOS: KMWN - KHIE - K8B0 - KCDA

TAF KHIE 201733Z 2018/2118 24004KT 6SM -SHRA OVC070 FM202100 VRB03KT 5SM BR VCSH BKN020 FM211100 VRB03KT 3SM BR VCSH BKN007